createdAt,value
2022-09-20T00:01:11.291Z,2.97
2022-09-20T00:03:40.529Z,2.63
2022-09-20T00:06:12.402Z,3.20
2022-09-20T00:08:39.419Z,2.72
2022-09-20T00:11:13.160Z,4.22
2022-09-20T00:13:40.450Z,3.17
2022-09-20T00:16:28.144Z,2.60
2022-09-20T00:18:57.435Z,2.47
2022-09-20T00:21:29.644Z,3.22
2022-09-20T00:23:57.662Z,4.28
2022-09-20T00:26:25.621Z,3.17
2022-09-20T00:28:52.785Z,4.57
2022-09-20T00:31:19.615Z,3.60
2022-09-20T00:34:05.355Z,3.90
2022-09-20T00:36:32.639Z,3.22
2022-09-20T00:39:02.024Z,3.03
2022-09-20T00:41:30.495Z,3.70
2022-09-20T00:43:58.102Z,3.90
2022-09-20T00:46:28.528Z,3.60
2022-09-20T00:49:18.243Z,3.10
2022-09-20T00:52:01.746Z,4.53
2022-09-20T00:54:30.530Z,4.30
2022-09-20T00:56:58.015Z,4.95
2022-09-20T00:59:30.301Z,3.60
2022-09-20T01:02:05.476Z,3.95
2022-09-20T01:04:35.915Z,4.60
2022-09-20T01:07:05.129Z,3.67
2022-09-20T01:09:31.889Z,4.18
2022-09-20T01:12:03.614Z,3.83
2022-09-20T01:14:30.667Z,4.30
2022-09-20T01:17:01.574Z,3.75
2022-09-20T01:19:49.511Z,5.13
2022-09-20T01:22:54.976Z,4.80
2022-09-20T01:26:02.681Z,4.07
2022-09-20T01:28:30.270Z,4.43
2022-09-20T01:31:05.869Z,3.97
2022-09-20T01:33:40.986Z,4.40
2022-09-20T01:36:12.508Z,4.75
2022-09-20T01:38:39.222Z,5.38
2022-09-20T01:41:22.005Z,4.85
2022-09-20T01:46:31.542Z,5.10
2022-09-20T01:49:33.011Z,5.38
2022-09-20T01:52:20.987Z,5.57
2022-09-20T01:55:17.859Z,5.60
2022-09-20T01:58:29.609Z,5.47
2022-09-20T02:01:09.168Z,6.30
2022-09-20T02:03:45.029Z,5.35
2022-09-20T02:06:17.789Z,6.00
2022-09-20T02:09:03.241Z,6.60
2022-09-20T02:11:45.004Z,5.43
2022-09-20T02:14:44.513Z,7.00
2022-09-20T02:17:14.784Z,5.30
2022-09-20T02:19:55.265Z,5.50
2022-09-20T02:22:36.877Z,5.88
2022-09-20T02:25:28.627Z,5.38
2022-09-20T02:28:01.273Z,5.93
2022-09-20T02:31:02.325Z,6.35
2022-09-20T02:34:18.249Z,6.88
2022-09-20T02:36:56.821Z,6.70
2022-09-20T02:39:48.053Z,9.13
2022-09-20T02:42:39.506Z,6.75
2022-09-20T02:45:18.332Z,7.63
2022-09-20T02:47:45.317Z,6.97
2022-09-20T02:50:31.242Z,7.00
2022-09-20T02:53:25.498Z,6.18
2022-09-20T02:56:29.959Z,6.90
2022-09-20T02:59:08.806Z,6.88
2022-09-20T03:01:59.903Z,7.20
2022-09-20T03:04:56.548Z,7.45
2022-09-20T03:07:33.973Z,8.43
2022-09-20T03:10:07.567Z,7.63
2022-09-20T03:12:59.099Z,7.35
2022-09-20T03:15:31.834Z,7.38
2022-09-20T03:18:12.963Z,8.00
2022-09-20T03:21:12.172Z,7.57
2022-09-20T03:24:21.415Z,7.65
2022-09-20T03:27:24.212Z,7.20
2022-09-20T03:30:19.399Z,8.60
2022-09-20T03:32:56.915Z,8.00
2022-09-20T03:35:54.170Z,8.05
2022-09-20T03:38:38.770Z,8.05
2022-09-20T03:41:25.989Z,7.78
2022-09-20T03:44:06.065Z,8.13
2022-09-20T03:46:46.659Z,8.07
2022-09-20T03:50:12.635Z,8.38
2022-09-20T03:52:48.210Z,8.35
2022-09-20T03:55:31.859Z,8.00
2022-09-20T03:57:59.094Z,7.63
2022-09-20T04:00:34.648Z,8.90
2022-09-20T04:03:38.385Z,8.75
2022-09-20T04:06:16.042Z,8.82
2022-09-20T04:09:01.757Z,8.68
2022-09-20T04:11:55.103Z,8.15
2022-09-20T04:14:44.937Z,9.00
2022-09-20T04:17:20.929Z,9.32
2022-09-20T04:20:02.682Z,8.88
2022-09-20T04:22:30.296Z,8.80
2022-09-20T04:25:15.658Z,10.15
2022-09-20T04:27:48.976Z,9.38
2022-09-20T04:30:28.966Z,10.93
2022-09-20T04:33:40.041Z,9.85
2022-09-20T04:36:31.745Z,9.63
2022-09-20T04:39:25.080Z,9.18
2022-09-20T04:42:23.279Z,10.00
2022-09-20T04:45:08.615Z,10.65
2022-09-20T04:48:06.322Z,10.65
2022-09-20T04:50:35.827Z,10.70
2022-09-20T04:53:05.325Z,9.65
2022-09-20T04:55:46.269Z,9.52
2022-09-20T04:58:43.182Z,11.50
2022-09-20T05:01:17.063Z,10.50
2022-09-20T05:04:05.475Z,10.65
2022-09-20T05:06:56.439Z,10.45
2022-09-20T05:09:33.555Z,11.05
2022-09-20T05:12:38.009Z,10.85
2022-09-20T05:15:13.992Z,11.05
2022-09-20T05:18:02.060Z,11.05
2022-09-20T05:20:34.608Z,12.02
2022-09-20T05:25:55.253Z,12.40
2022-09-20T05:28:51.431Z,11.27
2022-09-20T05:31:38.175Z,12.10
2022-09-20T05:34:31.736Z,12.18
2022-09-20T05:37:32.074Z,11.25
2022-09-20T05:40:23.147Z,11.27
2022-09-20T05:43:00.380Z,10.75
2022-09-20T05:45:52.116Z,9.70
2022-09-20T05:48:37.871Z,10.48
2022-09-20T05:51:04.559Z,10.80
2022-09-20T05:53:43.519Z,10.45
2022-09-20T05:56:34.509Z,10.38
2022-09-20T05:59:21.947Z,11.00
2022-09-20T06:02:26.140Z,10.50
2022-09-20T06:05:18.403Z,9.98
2022-09-20T06:08:22.930Z,10.75
2022-09-20T06:11:03.056Z,9.75
2022-09-20T06:14:04.029Z,9.45
2022-09-20T06:16:57.774Z,8.73
2022-09-20T06:20:08.870Z,8.93
2022-09-20T06:22:45.058Z,7.55
2022-09-20T06:25:56.140Z,7.38
2022-09-20T06:28:46.574Z,6.85
2022-09-20T06:31:13.443Z,6.93
2022-09-20T06:33:52.501Z,7.03
2022-09-20T06:36:51.994Z,5.93
2022-09-20T06:40:08.512Z,6.80
2022-09-20T06:42:36.146Z,5.35
2022-09-20T06:45:03.135Z,5.28
2022-09-20T06:47:30.157Z,5.45
2022-09-20T06:49:58.973Z,4.60
2022-09-20T06:52:25.994Z,4.50
2022-09-20T06:54:55.816Z,4.70
2022-09-20T06:57:40.697Z,4.45
2022-09-20T07:00:11.311Z,4.28
2022-09-20T07:02:38.581Z,4.20
2022-09-20T07:05:07.499Z,4.30
2022-09-20T07:07:34.264Z,3.83
2022-09-20T07:10:01.037Z,3.65
2022-09-20T07:12:33.488Z,3.67
2022-09-20T07:17:26.891Z,3.65
2022-09-20T07:19:53.638Z,3.65
2022-09-20T07:22:20.670Z,4.05
2022-09-20T07:24:48.299Z,3.75
2022-09-20T07:27:15.051Z,3.10
2022-09-20T07:29:41.814Z,3.40
2022-09-20T07:32:08.686Z,3.13
2022-09-20T07:34:35.438Z,4.07
2022-09-20T07:37:02.434Z,3.53
2022-09-20T07:39:29.929Z,3.33
2022-09-20T07:41:57.000Z,3.40
2022-09-20T07:44:27.830Z,3.03
2022-09-20T07:47:00.444Z,2.90
2022-09-20T07:49:31.617Z,3.47
2022-09-20T07:51:59.011Z,2.65
2022-09-20T07:54:27.644Z,2.80
2022-09-20T07:56:54.683Z,3.15
2022-09-20T07:59:21.899Z,2.22
2022-09-20T08:01:48.808Z,2.85
2022-09-20T08:04:15.700Z,3.13
2022-09-20T08:06:44.915Z,2.28
2022-09-20T08:09:13.663Z,2.50
2022-09-20T08:11:42.183Z,2.65
2022-09-20T08:14:15.178Z,1.85
2022-09-20T08:16:47.664Z,2.10
2022-09-20T08:19:20.968Z,2.30
2022-09-20T08:21:49.946Z,2.40
2022-09-20T08:24:17.544Z,1.85
2022-09-20T08:26:44.926Z,1.90
2022-09-20T08:29:12.392Z,2.10
2022-09-20T08:31:42.366Z,1.92
2022-09-20T08:34:12.245Z,2.03
2022-09-20T08:36:41.526Z,2.10
2022-09-20T08:42:09.012Z,1.30
2022-09-20T08:44:57.872Z,1.45
2022-09-20T08:47:35.711Z,1.48
2022-09-20T08:50:10.016Z,0.85
2022-09-20T08:52:40.150Z,0.90
2022-09-20T08:55:19.889Z,0.70
2022-09-20T08:57:52.501Z,0.90
2022-09-20T09:00:23.311Z,0.88
2022-09-20T09:02:54.404Z,0.80
2022-09-20T09:05:37.850Z,0.80
2022-09-20T09:08:16.696Z,0.80
2022-09-20T09:10:52.559Z,0.90
2022-09-20T09:13:28.463Z,0.50
2022-09-20T09:15:59.544Z,0.70
2022-09-20T09:18:34.816Z,0.88
2022-09-20T09:21:05.022Z,0.60
2022-09-20T09:23:41.596Z,0.60
2022-09-20T09:26:17.536Z,1.05
2022-09-20T09:28:44.318Z,1.02
2022-09-20T09:31:25.931Z,0.57
2022-09-20T09:33:53.005Z,0.80
2022-09-20T09:36:25.952Z,0.52
2022-09-20T09:39:16.924Z,0.77
2022-09-20T09:41:44.495Z,0.80
2022-09-20T09:44:21.503Z,0.52
2022-09-20T09:46:53.485Z,1.10
2022-09-20T09:49:34.165Z,0.75
2022-09-20T09:52:08.367Z,0.65
2022-09-20T09:54:40.521Z,0.77
2022-09-20T09:57:46.266Z,1.10
2022-09-20T10:00:21.564Z,1.02
2022-09-20T10:03:10.363Z,0.77
2022-09-20T10:06:07.512Z,1.00
2022-09-20T10:08:56.991Z,1.65
2022-09-20T10:11:30.641Z,1.02
2022-09-20T10:14:22.470Z,1.20
2022-09-20T10:16:53.077Z,1.10
2022-09-20T10:19:48.901Z,1.35
2022-09-20T10:22:21.638Z,1.00
2022-09-20T10:25:32.142Z,1.20
2022-09-20T10:28:16.038Z,1.27
2022-09-20T10:30:55.185Z,1.08
2022-09-20T10:33:31.565Z,0.80
2022-09-20T10:36:10.904Z,0.98
2022-09-20T10:38:54.919Z,0.85
2022-09-20T10:42:04.671Z,0.77
2022-09-20T10:44:54.585Z,1.13
2022-09-20T10:47:31.488Z,0.98
2022-09-20T10:50:26.125Z,1.33
2022-09-20T10:53:12.336Z,1.02
2022-09-20T10:55:52.033Z,1.10
2022-09-20T10:58:36.876Z,1.27
2022-09-20T11:01:14.196Z,1.25
2022-09-20T11:04:01.422Z,1.15
2022-09-20T11:07:02.994Z,1.48
2022-09-20T11:09:40.606Z,1.13
2022-09-20T11:12:25.962Z,1.30
2022-09-20T11:15:05.208Z,1.13
2022-09-20T11:18:09.812Z,1.27
2022-09-20T11:20:45.211Z,1.15
2022-09-20T11:23:27.854Z,0.90
2022-09-20T11:28:27.297Z,1.30
2022-09-20T11:31:06.599Z,1.35
2022-09-20T11:33:41.729Z,1.20
2022-09-20T11:36:15.811Z,1.42
2022-09-20T11:38:53.067Z,1.33
2022-09-20T11:41:29.499Z,0.60
2022-09-20T11:44:11.726Z,1.17
2022-09-20T11:46:59.909Z,1.30
2022-09-20T11:49:37.487Z,1.20
2022-09-20T11:52:28.674Z,0.90
2022-09-20T11:55:08.146Z,1.65
2022-09-20T11:57:34.959Z,1.00
2022-09-20T12:00:04.838Z,1.10
2022-09-20T12:02:43.472Z,1.80
2022-09-20T12:05:38.057Z,1.02
2022-09-20T12:08:35.344Z,1.00
2022-09-20T12:11:14.636Z,1.20
2022-09-20T12:13:52.949Z,1.10
2022-09-20T12:16:46.956Z,1.50
2022-09-20T12:19:36.467Z,1.25
2022-09-20T12:22:05.904Z,1.52
2022-09-20T12:24:35.240Z,0.93
2022-09-20T12:27:22.815Z,1.10
2022-09-20T12:29:55.015Z,1.60
2022-09-20T12:32:42.165Z,1.50
2022-09-20T12:35:37.145Z,1.00
2022-09-20T12:38:28.195Z,1.35
2022-09-20T12:41:27.809Z,1.38
2022-09-20T12:44:03.093Z,1.38
2022-09-20T12:46:34.531Z,1.50
2022-09-20T12:49:59.882Z,1.30
2022-09-20T12:52:50.624Z,1.20
2022-09-20T12:55:41.320Z,1.70
2022-09-20T12:58:24.187Z,1.30
2022-09-20T13:00:59.732Z,1.20
2022-09-20T13:03:28.373Z,1.52
2022-09-20T13:06:19.228Z,1.42
2022-09-20T13:09:01.077Z,1.10
2022-09-20T13:11:41.833Z,1.17
2022-09-20T13:14:21.973Z,1.10
2022-09-20T13:17:12.240Z,1.90
2022-09-20T13:19:44.957Z,1.02
2022-09-20T13:22:34.981Z,1.23
2022-09-20T13:25:05.027Z,1.20
2022-09-20T13:27:40.211Z,1.00
2022-09-20T13:30:17.891Z,1.42
2022-09-20T13:32:44.737Z,1.20
2022-09-20T13:35:23.998Z,1.10
2022-09-20T13:38:04.162Z,1.20
2022-09-20T13:40:43.248Z,1.17
2022-09-20T13:43:31.113Z,1.13
2022-09-20T13:46:00.285Z,1.10
2022-09-20T13:48:30.561Z,1.23
2022-09-20T13:50:57.624Z,0.60
2022-09-20T13:53:42.391Z,0.95
2022-09-20T13:56:18.408Z,1.00
2022-09-20T13:58:45.543Z,1.20
2022-09-20T14:01:32.420Z,1.50
2022-09-20T14:04:07.185Z,0.85
2022-09-20T14:06:34.508Z,0.90
2022-09-20T14:09:10.425Z,1.00
2022-09-20T14:11:39.028Z,1.15
2022-09-20T14:14:08.039Z,0.90
2022-09-20T14:16:39.662Z,0.80
2022-09-20T14:19:08.192Z,0.83
2022-09-20T14:21:37.107Z,0.90
2022-09-20T14:24:23.954Z,0.60
2022-09-20T14:27:06.936Z,1.00
2022-09-20T14:29:41.913Z,1.73
2022-09-20T14:32:19.205Z,0.80
2022-09-20T14:34:52.164Z,0.70
2022-09-20T14:37:27.289Z,0.73
2022-09-20T14:40:03.475Z,0.90
2022-09-20T14:42:40.842Z,0.82
2022-09-20T14:45:08.679Z,0.43
2022-09-20T14:47:52.654Z,0.65
2022-09-20T14:50:30.284Z,1.25
2022-09-20T14:53:06.045Z,0.98
2022-09-20T14:55:37.403Z,1.20
2022-09-20T14:58:13.766Z,1.40
2022-09-20T15:00:52.425Z,0.93
2022-09-20T15:03:34.095Z,0.90
2022-09-20T15:06:00.946Z,1.02
2022-09-20T15:08:27.966Z,1.10
2022-09-20T15:10:54.887Z,0.80
2022-09-20T15:13:21.859Z,1.20
2022-09-20T15:15:53.694Z,1.13
2022-09-20T15:18:26.702Z,1.10
2022-09-20T15:20:54.750Z,0.80
2022-09-20T15:23:22.093Z,1.05
2022-09-20T15:25:53.788Z,1.00
2022-09-20T15:28:21.491Z,1.10
2022-09-20T15:30:53.537Z,1.15
2022-09-20T15:33:21.614Z,0.77
2022-09-20T15:35:49.077Z,1.10
2022-09-20T15:38:18.307Z,0.90
2022-09-20T15:40:47.504Z,0.85
2022-09-20T15:43:17.327Z,0.85
2022-09-20T15:45:50.145Z,1.17
2022-09-20T15:48:21.429Z,0.77
2022-09-20T15:51:10.939Z,0.90
2022-09-20T15:53:46.208Z,1.00
2022-09-20T15:56:24.249Z,0.88
2022-09-20T15:59:02.245Z,0.80
2022-09-20T16:01:32.845Z,1.35
2022-09-20T16:04:00.485Z,1.33
2022-09-20T16:06:27.259Z,1.00
2022-09-20T16:08:55.777Z,0.95
2022-09-20T16:11:23.296Z,1.23
2022-09-20T16:13:57.940Z,0.82
2022-09-20T16:16:26.379Z,0.90
2022-09-20T16:19:11.781Z,0.98
2022-09-20T16:21:40.478Z,1.10
2022-09-20T16:24:07.893Z,0.80
2022-09-20T16:26:35.639Z,1.10
2022-09-20T16:29:04.976Z,1.00
2022-09-20T16:31:42.278Z,1.13
2022-09-20T16:34:17.049Z,1.10
2022-09-20T16:36:45.437Z,0.90
2022-09-20T16:39:13.697Z,0.77
2022-09-20T16:41:40.942Z,0.90
2022-09-20T16:44:08.479Z,1.30
2022-09-20T16:46:37.440Z,1.05
2022-09-20T16:49:09.612Z,1.00
2022-09-20T16:51:38.685Z,1.80
2022-09-20T16:54:13.298Z,1.30
2022-09-20T16:56:42.695Z,1.20
2022-09-20T16:59:10.813Z,1.13
2022-09-20T17:01:39.339Z,1.45
2022-09-20T17:04:06.958Z,1.40
2022-09-20T17:06:35.623Z,1.17
2022-09-20T17:09:03.679Z,1.05
2022-09-20T17:11:32.806Z,1.23
2022-09-20T17:14:00.130Z,0.82
2022-09-20T17:16:29.899Z,1.02
2022-09-20T17:18:58.198Z,1.52
2022-09-20T17:21:26.492Z,0.85
2022-09-20T17:23:56.217Z,1.10
2022-09-20T17:26:37.395Z,1.73
2022-09-20T17:29:10.258Z,1.10
2022-09-20T17:31:39.157Z,1.33
2022-09-20T17:34:08.464Z,1.40
2022-09-20T17:36:43.600Z,1.27
2022-09-20T17:39:12.674Z,1.70
2022-09-20T17:41:41.026Z,1.77
2022-09-20T17:44:11.897Z,1.55
2022-09-20T17:46:40.891Z,1.90
2022-09-20T17:49:15.002Z,1.60
2022-09-20T17:51:44.586Z,2.10
2022-09-20T17:54:15.549Z,1.70
2022-09-20T17:56:43.834Z,2.00
2022-09-20T17:59:12.745Z,1.52
2022-09-20T18:01:40.515Z,1.75
2022-09-20T18:04:08.820Z,1.65
2022-09-20T18:06:42.342Z,1.65
2022-09-20T18:09:11.602Z,2.55
2022-09-20T18:11:41.000Z,2.17
2022-09-20T18:14:13.338Z,1.88
2022-09-20T18:16:40.433Z,2.00
2022-09-20T18:19:08.471Z,2.40
2022-09-20T18:21:37.093Z,2.13
2022-09-20T18:24:09.283Z,3.47
2022-09-20T18:26:37.113Z,2.78
2022-09-20T18:29:12.636Z,3.40
2022-09-20T18:31:43.064Z,3.70
2022-09-20T18:34:33.572Z,3.83
2022-09-20T18:37:01.634Z,4.40
2022-09-20T18:39:33.505Z,3.25
2022-09-20T18:42:01.401Z,3.92
2022-09-20T18:44:33.528Z,4.30
2022-09-20T18:47:01.325Z,4.53
2022-09-20T18:49:30.266Z,4.40
2022-09-20T18:51:57.645Z,4.60
2022-09-20T18:54:24.416Z,4.70
2022-09-20T18:56:51.783Z,5.53
2022-09-20T18:59:24.163Z,5.70
2022-09-20T19:01:53.835Z,5.35
2022-09-20T19:04:42.221Z,5.90
2022-09-20T19:07:27.361Z,5.90
2022-09-20T19:10:12.253Z,5.53
2022-09-20T19:12:46.324Z,6.00
2022-09-20T19:15:15.923Z,5.90
2022-09-20T19:17:58.003Z,6.50
2022-09-20T19:20:40.900Z,7.15
2022-09-20T19:23:14.402Z,6.55
2022-09-20T19:25:44.962Z,6.82
2022-09-20T19:28:14.535Z,7.55
2022-09-20T19:30:42.730Z,7.45
2022-09-20T19:33:17.925Z,7.22
2022-09-20T19:35:49.958Z,8.32
2022-09-20T19:38:17.748Z,8.15
2022-09-20T19:40:54.604Z,8.18
2022-09-20T19:43:35.039Z,7.35
2022-09-20T19:46:22.568Z,6.93
2022-09-20T19:48:54.749Z,6.45
2022-09-20T19:51:22.449Z,6.07
2022-09-20T19:53:50.191Z,5.68
2022-09-20T19:56:24.177Z,5.82
2022-09-20T19:58:53.296Z,6.32
2022-09-20T20:01:22.630Z,5.70
2022-09-20T20:03:51.284Z,6.13
2022-09-20T20:06:36.977Z,6.55
2022-09-20T20:09:23.700Z,5.85
2022-09-20T20:12:25.988Z,5.57
2022-09-20T20:15:18.001Z,6.17
2022-09-20T20:17:57.525Z,5.70
2022-09-20T20:20:45.953Z,5.82
2022-09-20T20:23:30.971Z,5.72
2022-09-20T20:26:07.649Z,6.43
2022-09-20T20:28:34.823Z,7.00
2022-09-20T20:31:04.867Z,7.95
2022-09-20T20:33:32.855Z,9.00
2022-09-20T20:36:01.673Z,12.07
2022-09-20T20:38:30.073Z,9.57
2022-09-20T20:41:05.710Z,7.82
2022-09-20T20:43:38.871Z,6.57
2022-09-20T20:46:08.546Z,7.03
2022-09-20T20:48:36.937Z,6.72
2022-09-20T20:51:08.000Z,6.07
2022-09-20T20:53:37.423Z,6.95
2022-09-20T20:56:07.214Z,7.72
2022-09-20T20:58:36.301Z,7.10
2022-09-20T21:01:14.426Z,5.80
2022-09-20T21:03:43.123Z,5.53
2022-09-20T21:06:11.065Z,4.40
2022-09-20T21:08:40.320Z,4.97
2022-09-20T21:11:14.392Z,5.10
2022-09-20T21:13:41.597Z,4.78
2022-09-20T21:16:17.894Z,5.68
2022-09-20T21:18:46.741Z,5.20
2022-09-20T21:21:14.708Z,5.20
2022-09-20T21:23:41.659Z,5.72
2022-09-20T21:26:10.906Z,5.57
2022-09-20T21:28:39.514Z,5.10
2022-09-20T21:31:08.056Z,4.43
2022-09-20T21:33:41.348Z,4.45
2022-09-20T21:36:14.809Z,4.78
2022-09-20T21:38:43.286Z,4.75
2022-09-20T21:41:15.512Z,4.65
2022-09-20T21:43:43.994Z,4.80
2022-09-20T21:46:19.347Z,4.93
2022-09-20T21:48:48.057Z,3.95
2022-09-20T21:51:20.460Z,4.28
2022-09-20T21:53:49.410Z,4.20
2022-09-20T21:56:19.839Z,3.70
2022-09-20T21:58:46.842Z,4.10
2022-09-20T22:01:14.834Z,3.72
2022-09-20T22:03:42.959Z,4.00
2022-09-20T22:06:11.198Z,4.28
2022-09-20T22:08:39.946Z,5.00
2022-09-20T22:11:11.188Z,3.95
2022-09-20T22:13:48.680Z,3.97
2022-09-20T22:16:19.744Z,4.10
2022-09-20T22:18:47.304Z,4.53
2022-09-20T22:21:19.918Z,4.32
2022-09-20T22:26:21.524Z,4.40
2022-09-20T22:28:49.802Z,4.22
2022-09-20T22:31:19.632Z,4.00
2022-09-20T22:33:49.115Z,4.75
2022-09-20T22:36:17.976Z,5.07
2022-09-20T22:38:45.453Z,4.45
2022-09-20T22:41:14.888Z,3.95
2022-09-20T22:43:41.980Z,4.03
2022-09-20T22:46:20.556Z,4.72
2022-09-20T22:48:47.789Z,4.88
2022-09-20T22:51:19.169Z,4.38
2022-09-20T22:53:46.968Z,4.65
2022-09-20T22:56:18.567Z,4.22
2022-09-20T22:58:47.253Z,5.35
2022-09-20T23:01:35.520Z,4.63
2022-09-20T23:04:07.331Z,4.50
2022-09-20T23:06:57.312Z,5.63
2022-09-20T23:09:27.994Z,4.68
2022-09-20T23:11:54.907Z,4.90
2022-09-20T23:14:23.198Z,4.88
2022-09-20T23:16:50.087Z,4.55
2022-09-20T23:19:17.369Z,4.43
2022-09-20T23:21:44.791Z,4.88
2022-09-20T23:24:15.138Z,4.65
2022-09-20T23:26:43.342Z,4.95
2022-09-20T23:29:12.802Z,4.35
2022-09-20T23:31:45.540Z,4.63
2022-09-20T23:34:13.618Z,4.43
2022-09-20T23:36:41.771Z,4.38
2022-09-20T23:39:09.709Z,4.53
2022-09-20T23:41:36.923Z,4.47
2022-09-20T23:44:06.409Z,4.78
2022-09-20T23:46:33.442Z,4.65
2022-09-20T23:49:00.251Z,4.93
2022-09-20T23:51:28.515Z,4.57
2022-09-20T23:53:56.081Z,4.18
2022-09-20T23:56:23.887Z,4.13
2022-09-20T23:58:51.112Z,4.00
